sensor_id;sensor_type;location;lat;lon;timestamp;temperature;humidity
34698;DHT22;61391;50.922;6.928;2023-03-09T00:02:12;5.80;99.90
34698;DHT22;61391;50.922;6.928;2023-03-09T00:04:38;5.70;99.90
34698;DHT22;61391;50.922;6.928;2023-03-09T00:07:04;5.70;99.90
34698;DHT22;61391;50.922;6.928;2023-03-09T00:09:30;6.10;99.90
34698;DHT22;61391;50.922;6.928;2023-03-09T00:11:55;6.30;99.90
34698;DHT22;61391;50.922;6.928;2023-03-09T00:14:22;6.50;99.90
34698;DHT22;61391;50.922;6.928;2023-03-09T00:16:49;6.60;99.90
34698;DHT22;61391;50.922;6.928;2023-03-09T00:19:15;6.70;99.90
34698;DHT22;61391;50.922;6.928;2023-03-09T00:21:47;6.80;99.90
34698;DHT22;61391;50.922;6.928;2023-03-09T00:24:24;6.80;99.90
34698;DHT22;61391;50.922;6.928;2023-03-09T00:27:08;6.80;99.90
34698;DHT22;61391;50.922;6.928;2023-03-09T00:29:34;7.00;99.90
34698;DHT22;61391;50.922;6.928;2023-03-09T00:35:23;6.80;99.90
34698;DHT22;61391;50.922;6.928;2023-03-09T00:37:49;7.00;99.90
34698;DHT22;61391;50.922;6.928;2023-03-09T00:43:37;7.00;99.90
34698;DHT22;61391;50.922;6.928;2023-03-09T00:46:03;6.50;99.90
34698;DHT22;61391;50.922;6.928;2023-03-09T00:48:30;6.10;99.90
34698;DHT22;61391;50.922;6.928;2023-03-09T00:50:57;6.10;99.90
34698;DHT22;61391;50.922;6.928;2023-03-09T00:53:23;6.30;99.90
34698;DHT22;61391;50.922;6.928;2023-03-09T00:55:49;6.00;99.90
34698;DHT22;61391;50.922;6.928;2023-03-09T00:58:14;6.30;99.90
34698;DHT22;61391;50.922;6.928;2023-03-09T01:00:40;6.30;99.90
34698;DHT22;61391;50.922;6.928;2023-03-09T01:03:12;6.10;99.90
34698;DHT22;61391;50.922;6.928;2023-03-09T01:05:38;6.30;99.90
34698;DHT22;61391;50.922;6.928;2023-03-09T01:08:04;6.60;99.90
34698;DHT22;61391;50.922;6.928;2023-03-09T01:13:52;7.10;99.90
34698;DHT22;61391;50.922;6.928;2023-03-09T01:16:18;7.30;99.90
34698;DHT22;61391;50.922;6.928;2023-03-09T01:18:43;7.20;99.90
34698;DHT22;61391;50.922;6.928;2023-03-09T01:21:10;7.20;99.90
34698;DHT22;61391;50.922;6.928;2023-03-09T01:23:37;7.10;99.90
34698;DHT22;61391;50.922;6.928;2023-03-09T01:26:05;7.10;99.90
34698;DHT22;61391;50.922;6.928;2023-03-09T01:31:55;7.20;99.90
34698;DHT22;61391;50.922;6.928;2023-03-09T01:34:20;7.50;99.90
34698;DHT22;61391;50.922;6.928;2023-03-09T01:36:48;7.60;99.90
34698;DHT22;61391;50.922;6.928;2023-03-09T01:39:15;7.40;99.90
34698;DHT22;61391;50.922;6.928;2023-03-09T01:41:40;7.40;99.90
34698;DHT22;61391;50.922;6.928;2023-03-09T01:44:12;7.40;99.90
34698;DHT22;61391;50.922;6.928;2023-03-09T01:46:46;7.40;99.90
34698;DHT22;61391;50.922;6.928;2023-03-09T01:49:26;7.50;99.90
34698;DHT22;61391;50.922;6.928;2023-03-09T01:55:22;7.60;99.90
34698;DHT22;61391;50.922;6.928;2023-03-09T01:57:53;7.70;99.90
34698;DHT22;61391;50.922;6.928;2023-03-09T02:00:22;7.50;99.90
34698;DHT22;61391;50.922;6.928;2023-03-09T02:03:11;7.40;99.90
34698;DHT22;61391;50.922;6.928;2023-03-09T02:05:45;7.40;99.90
34698;DHT22;61391;50.922;6.928;2023-03-09T02:11:34;7.50;99.90
34698;DHT22;61391;50.922;6.928;2023-03-09T02:14:00;7.60;99.90
34698;DHT22;61391;50.922;6.928;2023-03-09T02:16:27;7.60;99.90
34698;DHT22;61391;50.922;6.928;2023-03-09T02:18:52;7.50;99.90
34698;DHT22;61391;50.922;6.928;2023-03-09T02:21:41;7.40;99.90
34698;DHT22;61391;50.922;6.928;2023-03-09T02:24:32;7.20;99.90
34698;DHT22;61391;50.922;6.928;2023-03-09T02:30:22;7.10;99.90
34698;DHT22;61391;50.922;6.928;2023-03-09T02:32:50;6.90;99.90
34698;DHT22;61391;50.922;6.928;2023-03-09T02:35:15;6.50;99.90
34698;DHT22;61391;50.922;6.928;2023-03-09T02:37:41;6.60;99.90
34698;DHT22;61391;50.922;6.928;2023-03-09T02:40:15;6.70;99.90
34698;DHT22;61391;50.922;6.928;2023-03-09T02:42:43;6.60;99.90
34698;DHT22;61391;50.922;6.928;2023-03-09T02:45:11;6.30;99.90
34698;DHT22;61391;50.922;6.928;2023-03-09T02:51:02;6.50;99.90
34698;DHT22;61391;50.922;6.928;2023-03-09T02:53:27;6.60;99.90
34698;DHT22;61391;50.922;6.928;2023-03-09T02:55:54;6.60;99.90
34698;DHT22;61391;50.922;6.928;2023-03-09T02:58:19;6.50;99.90
34698;DHT22;61391;50.922;6.928;2023-03-09T03:00:45;6.50;99.90
34698;DHT22;61391;50.922;6.928;2023-03-09T03:03:10;6.40;99.90
34698;DHT22;61391;50.922;6.928;2023-03-09T03:05:36;6.30;99.90
34698;DHT22;61391;50.922;6.928;2023-03-09T03:08:03;6.10;99.90
34698;DHT22;61391;50.922;6.928;2023-03-09T03:13:50;6.10;99.90
34698;DHT22;61391;50.922;6.928;2023-03-09T03:16:16;6.10;99.90
34698;DHT22;61391;50.922;6.928;2023-03-09T03:18:42;6.30;99.90
34698;DHT22;61391;50.922;6.928;2023-03-09T03:21:08;6.40;99.90
34698;DHT22;61391;50.922;6.928;2023-03-09T03:23:35;6.30;99.90
34698;DHT22;61391;50.922;6.928;2023-03-09T03:26:11;6.30;99.90
34698;DHT22;61391;50.922;6.928;2023-03-09T03:28:38;6.20;99.90
34698;DHT22;61391;50.922;6.928;2023-03-09T03:31:04;6.20;99.90
34698;DHT22;61391;50.922;6.928;2023-03-09T03:33:30;6.10;99.90
34698;DHT22;61391;50.922;6.928;2023-03-09T03:35:56;6.20;99.90
34698;DHT22;61391;50.922;6.928;2023-03-09T03:38:22;6.10;99.90
34698;DHT22;61391;50.922;6.928;2023-03-09T03:40:49;6.20;99.90
34698;DHT22;61391;50.922;6.928;2023-03-09T03:43:15;6.30;99.90
34698;DHT22;61391;50.922;6.928;2023-03-09T03:45:40;6.20;99.90
34698;DHT22;61391;50.922;6.928;2023-03-09T03:48:06;6.20;99.90
34698;DHT22;61391;50.922;6.928;2023-03-09T03:50:32;6.10;99.90
34698;DHT22;61391;50.922;6.928;2023-03-09T03:52:59;6.20;99.90
34698;DHT22;61391;50.922;6.928;2023-03-09T03:55:25;6.30;99.90
34698;DHT22;61391;50.922;6.928;2023-03-09T03:57:51;6.30;99.90
34698;DHT22;61391;50.922;6.928;2023-03-09T04:00:20;6.20;99.90
34698;DHT22;61391;50.922;6.928;2023-03-09T04:02:45;6.30;99.90
34698;DHT22;61391;50.922;6.928;2023-03-09T04:05:12;6.30;99.90
34698;DHT22;61391;50.922;6.928;2023-03-09T04:07:40;6.30;99.90
34698;DHT22;61391;50.922;6.928;2023-03-09T04:10:08;6.30;99.90
34698;DHT22;61391;50.922;6.928;2023-03-09T04:12:34;6.40;99.90
34698;DHT22;61391;50.922;6.928;2023-03-09T04:14:59;6.30;99.90
34698;DHT22;61391;50.922;6.928;2023-03-09T04:17:26;6.40;99.90
34698;DHT22;61391;50.922;6.928;2023-03-09T04:19:52;6.30;99.90
34698;DHT22;61391;50.922;6.928;2023-03-09T04:25:42;6.20;99.90
34698;DHT22;61391;50.922;6.928;2023-03-09T04:28:07;6.30;99.90
34698;DHT22;61391;50.922;6.928;2023-03-09T04:30:33;6.30;99.90
34698;DHT22;61391;50.922;6.928;2023-03-09T04:33:00;6.20;99.90
34698;DHT22;61391;50.922;6.928;2023-03-09T04:38:48;6.20;99.90
34698;DHT22;61391;50.922;6.928;2023-03-09T04:41:14;6.10;99.90
34698;DHT22;61391;50.922;6.928;2023-03-09T04:43:40;6.10;99.90
34698;DHT22;61391;50.922;6.928;2023-03-09T04:46:05;6.20;99.90
34698;DHT22;61391;50.922;6.928;2023-03-09T04:48:32;6.20;99.90
34698;DHT22;61391;50.922;6.928;2023-03-09T04:50:57;6.10;99.90
34698;DHT22;61391;50.922;6.928;2023-03-09T04:53:23;6.20;99.90
34698;DHT22;61391;50.922;6.928;2023-03-09T04:55:50;5.90;99.90
34698;DHT22;61391;50.922;6.928;2023-03-09T04:58:16;6.00;99.90
34698;DHT22;61391;50.922;6.928;2023-03-09T05:04:03;6.10;99.90
34698;DHT22;61391;50.922;6.928;2023-03-09T05:06:29;6.00;99.90
34698;DHT22;61391;50.922;6.928;2023-03-09T05:08:54;6.10;99.90
34698;DHT22;61391;50.922;6.928;2023-03-09T05:11:20;6.10;99.90
34698;DHT22;61391;50.922;6.928;2023-03-09T05:13:46;6.10;99.90
34698;DHT22;61391;50.922;6.928;2023-03-09T05:19:35;6.00;99.90
34698;DHT22;61391;50.922;6.928;2023-03-09T05:22:05;5.90;99.90
34698;DHT22;61391;50.922;6.928;2023-03-09T05:24:31;6.10;99.90
34698;DHT22;61391;50.922;6.928;2023-03-09T05:26:56;6.00;99.90
34698;DHT22;61391;50.922;6.928;2023-03-09T05:32:45;6.10;99.90
34698;DHT22;61391;50.922;6.928;2023-03-09T05:35:11;5.80;99.90
34698;DHT22;61391;50.922;6.928;2023-03-09T05:37:38;5.90;99.90
34698;DHT22;61391;50.922;6.928;2023-03-09T05:40:05;5.90;99.90
34698;DHT22;61391;50.922;6.928;2023-03-09T05:42:31;5.70;99.90
34698;DHT22;61391;50.922;6.928;2023-03-09T05:44:57;5.70;99.90
34698;DHT22;61391;50.922;6.928;2023-03-09T05:47:25;5.80;99.90
34698;DHT22;61391;50.922;6.928;2023-03-09T05:49:51;5.90;99.90
34698;DHT22;61391;50.922;6.928;2023-03-09T05:52:20;6.10;99.90
34698;DHT22;61391;50.922;6.928;2023-03-09T05:54:50;6.10;99.90
34698;DHT22;61391;50.922;6.928;2023-03-09T06:00:45;6.20;99.90
34698;DHT22;61391;50.922;6.928;2023-03-09T06:03:12;6.20;99.90
34698;DHT22;61391;50.922;6.928;2023-03-09T06:09:02;6.00;99.90
34698;DHT22;61391;50.922;6.928;2023-03-09T06:11:28;6.00;99.90
34698;DHT22;61391;50.922;6.928;2023-03-09T06:13:55;6.10;99.90
34698;DHT22;61391;50.922;6.928;2023-03-09T06:16:21;6.00;99.90
34698;DHT22;61391;50.922;6.928;2023-03-09T06:18:46;6.00;99.90
34698;DHT22;61391;50.922;6.928;2023-03-09T06:21:13;6.10;99.90
34698;DHT22;61391;50.922;6.928;2023-03-09T06:23:39;6.00;99.90
34698;DHT22;61391;50.922;6.928;2023-03-09T06:29:28;6.00;99.90
34698;DHT22;61391;50.922;6.928;2023-03-09T06:31:54;5.90;99.90
34698;DHT22;61391;50.922;6.928;2023-03-09T06:34:21;5.60;99.90
34698;DHT22;61391;50.922;6.928;2023-03-09T06:43:27;5.90;99.90
34698;DHT22;61391;50.922;6.928;2023-03-09T06:45:53;6.10;99.90
34698;DHT22;61391;50.922;6.928;2023-03-09T06:48:19;6.10;99.90
34698;DHT22;61391;50.922;6.928;2023-03-09T06:50:44;6.10;99.90
34698;DHT22;61391;50.922;6.928;2023-03-09T06:56:32;6.30;99.90
34698;DHT22;61391;50.922;6.928;2023-03-09T06:58:57;6.30;99.90
34698;DHT22;61391;50.922;6.928;2023-03-09T07:01:23;6.10;99.90
34698;DHT22;61391;50.922;6.928;2023-03-09T07:03:49;6.10;99.90
34698;DHT22;61391;50.922;6.928;2023-03-09T07:06:14;6.10;99.90
34698;DHT22;61391;50.922;6.928;2023-03-09T07:08:40;6.00;99.90
34698;DHT22;61391;50.922;6.928;2023-03-09T07:11:05;6.00;99.90
34698;DHT22;61391;50.922;6.928;2023-03-09T07:13:31;6.40;99.90
34698;DHT22;61391;50.922;6.928;2023-03-09T07:16:00;6.40;99.90
34698;DHT22;61391;50.922;6.928;2023-03-09T07:18:31;6.50;99.90
34698;DHT22;61391;50.922;6.928;2023-03-09T07:20:59;6.60;99.90
34698;DHT22;61391;50.922;6.928;2023-03-09T07:23:31;6.50;99.90
34698;DHT22;61391;50.922;6.928;2023-03-09T07:26:04;6.50;99.90
34698;DHT22;61391;50.922;6.928;2023-03-09T07:28:31;6.60;99.90
34698;DHT22;61391;50.922;6.928;2023-03-09T07:34:20;6.30;99.90
34698;DHT22;61391;50.922;6.928;2023-03-09T07:36:47;6.40;99.90
34698;DHT22;61391;50.922;6.928;2023-03-09T07:39:14;6.50;99.90
34698;DHT22;61391;50.922;6.928;2023-03-09T07:41:41;6.60;99.90
34698;DHT22;61391;50.922;6.928;2023-03-09T07:44:07;6.70;99.90
34698;DHT22;61391;50.922;6.928;2023-03-09T07:46:33;6.60;99.90
34698;DHT22;61391;50.922;6.928;2023-03-09T07:48:58;6.50;99.90
34698;DHT22;61391;50.922;6.928;2023-03-09T07:51:24;6.40;99.90
34698;DHT22;61391;50.922;6.928;2023-03-09T07:53:50;6.30;99.90
34698;DHT22;61391;50.922;6.928;2023-03-09T07:59:37;6.40;99.90
34698;DHT22;61391;50.922;6.928;2023-03-09T08:02:05;6.50;99.90
34698;DHT22;61391;50.922;6.928;2023-03-09T08:04:36;6.50;99.90
34698;DHT22;61391;50.922;6.928;2023-03-09T08:07:04;6.50;99.90
34698;DHT22;61391;50.922;6.928;2023-03-09T08:09:30;6.30;99.90
34698;DHT22;61391;50.922;6.928;2023-03-09T08:11:57;6.00;99.90
34698;DHT22;61391;50.922;6.928;2023-03-09T08:14:22;5.70;99.90
34698;DHT22;61391;50.922;6.928;2023-03-09T08:16:49;5.60;99.90
34698;DHT22;61391;50.922;6.928;2023-03-09T08:19:15;5.80;99.90
34698;DHT22;61391;50.922;6.928;2023-03-09T08:21:47;5.80;99.90
34698;DHT22;61391;50.922;6.928;2023-03-09T08:24:14;5.70;99.90
34698;DHT22;61391;50.922;6.928;2023-03-09T08:26:48;6.00;99.90
34698;DHT22;61391;50.922;6.928;2023-03-09T08:29:14;6.20;99.90
34698;DHT22;61391;50.922;6.928;2023-03-09T08:31:43;5.80;99.90
34698;DHT22;61391;50.922;6.928;2023-03-09T08:34:09;5.60;99.90
34698;DHT22;61391;50.922;6.928;2023-03-09T08:36:38;5.70;99.90
34698;DHT22;61391;50.922;6.928;2023-03-09T08:42:27;5.90;99.90
34698;DHT22;61391;50.922;6.928;2023-03-09T08:44:54;6.00;99.90
34698;DHT22;61391;50.922;6.928;2023-03-09T08:47:20;6.00;99.90
34698;DHT22;61391;50.922;6.928;2023-03-09T08:49:48;6.20;99.90
34698;DHT22;61391;50.922;6.928;2023-03-09T08:52:13;6.40;99.90
34698;DHT22;61391;50.922;6.928;2023-03-09T09:01:24;6.60;99.90
34698;DHT22;61391;50.922;6.928;2023-03-09T09:03:50;6.70;99.90
34698;DHT22;61391;50.922;6.928;2023-03-09T09:06:17;6.70;99.90
34698;DHT22;61391;50.922;6.928;2023-03-09T09:08:44;6.90;99.90
34698;DHT22;61391;50.922;6.928;2023-03-09T09:11:16;7.00;99.90
34698;DHT22;61391;50.922;6.928;2023-03-09T09:13:42;6.90;99.90
34698;DHT22;61391;50.922;6.928;2023-03-09T09:16:09;7.00;99.90
34698;DHT22;61391;50.922;6.928;2023-03-09T09:18:37;6.90;99.90
34698;DHT22;61391;50.922;6.928;2023-03-09T09:21:08;6.90;99.90
34698;DHT22;61391;50.922;6.928;2023-03-09T09:23:36;7.00;99.90
34698;DHT22;61391;50.922;6.928;2023-03-09T09:26:02;7.10;99.90
34698;DHT22;61391;50.922;6.928;2023-03-09T09:28:32;6.90;99.90
34698;DHT22;61391;50.922;6.928;2023-03-09T09:31:03;6.90;99.90
34698;DHT22;61391;50.922;6.928;2023-03-09T09:33:33;6.80;99.90
34698;DHT22;61391;50.922;6.928;2023-03-09T09:36:04;6.80;99.90
34698;DHT22;61391;50.922;6.928;2023-03-09T09:38:32;6.90;99.90
34698;DHT22;61391;50.922;6.928;2023-03-09T09:41:02;6.90;99.90
34698;DHT22;61391;50.922;6.928;2023-03-09T09:43:31;6.80;99.90
34698;DHT22;61391;50.922;6.928;2023-03-09T09:45:59;7.00;99.90
34698;DHT22;61391;50.922;6.928;2023-03-09T09:48:29;7.00;99.90
34698;DHT22;61391;50.922;6.928;2023-03-09T09:56:28;7.40;99.90
34698;DHT22;61391;50.922;6.928;2023-03-09T09:59:05;7.40;99.90
34698;DHT22;61391;50.922;6.928;2023-03-09T10:05:04;7.60;99.90
34698;DHT22;61391;50.922;6.928;2023-03-09T10:07:32;7.90;99.90
34698;DHT22;61391;50.922;6.928;2023-03-09T10:10:03;8.00;99.90
34698;DHT22;61391;50.922;6.928;2023-03-09T10:12:32;8.20;99.90
34698;DHT22;61391;50.922;6.928;2023-03-09T10:15:29;8.00;99.90
34698;DHT22;61391;50.922;6.928;2023-03-09T10:18:15;8.00;99.90
34698;DHT22;61391;50.922;6.928;2023-03-09T10:20:52;8.20;99.90
34698;DHT22;61391;50.922;6.928;2023-03-09T10:23:24;8.30;99.90
34698;DHT22;61391;50.922;6.928;2023-03-09T10:29:21;8.00;99.90
34698;DHT22;61391;50.922;6.928;2023-03-09T10:32:04;8.20;99.90
34698;DHT22;61391;50.922;6.928;2023-03-09T10:34:40;8.30;99.90
34698;DHT22;61391;50.922;6.928;2023-03-09T10:37:17;8.30;99.90
34698;DHT22;61391;50.922;6.928;2023-03-09T10:39:48;8.40;99.90
34698;DHT22;61391;50.922;6.928;2023-03-09T10:42:27;8.40;99.90
34698;DHT22;61391;50.922;6.928;2023-03-09T10:45:04;8.40;99.90
34698;DHT22;61391;50.922;6.928;2023-03-09T10:48:00;8.50;99.90
34698;DHT22;61391;50.922;6.928;2023-03-09T10:50:38;8.70;99.90
34698;DHT22;61391;50.922;6.928;2023-03-09T10:53:38;8.50;99.90
34698;DHT22;61391;50.922;6.928;2023-03-09T10:56:20;8.50;99.90
34698;DHT22;61391;50.922;6.928;2023-03-09T10:58:58;8.50;99.90
34698;DHT22;61391;50.922;6.928;2023-03-09T11:01:49;8.60;99.90
34698;DHT22;61391;50.922;6.928;2023-03-09T11:04:28;8.80;99.90
34698;DHT22;61391;50.922;6.928;2023-03-09T11:09:49;8.90;99.90
34698;DHT22;61391;50.922;6.928;2023-03-09T11:12:37;8.80;99.90
34698;DHT22;61391;50.922;6.928;2023-03-09T11:17:44;8.80;99.90
34698;DHT22;61391;50.922;6.928;2023-03-09T11:26:25;9.20;99.90
34698;DHT22;61391;50.922;6.928;2023-03-09T11:28:54;9.40;99.90
34698;DHT22;61391;50.922;6.928;2023-03-09T11:31:24;9.40;99.90
34698;DHT22;61391;50.922;6.928;2023-03-09T11:33:53;9.10;99.90
34698;DHT22;61391;50.922;6.928;2023-03-09T11:40:04;9.00;99.90
34698;DHT22;61391;50.922;6.928;2023-03-09T11:46:13;9.00;99.90
34698;DHT22;61391;50.922;6.928;2023-03-09T11:49:10;9.30;99.90
34698;DHT22;61391;50.922;6.928;2023-03-09T11:51:45;9.60;99.90
34698;DHT22;61391;50.922;6.928;2023-03-09T11:54:35;9.70;99.90
34698;DHT22;61391;50.922;6.928;2023-03-09T11:57:08;9.80;99.90
34698;DHT22;61391;50.922;6.928;2023-03-09T11:59:46;9.50;99.90
34698;DHT22;61391;50.922;6.928;2023-03-09T12:02:55;9.80;99.90
34698;DHT22;61391;50.922;6.928;2023-03-09T12:05:44;9.70;99.90
34698;DHT22;61391;50.922;6.928;2023-03-09T12:08:18;9.90;99.90
34698;DHT22;61391;50.922;6.928;2023-03-09T12:13:36;10.40;99.90
34698;DHT22;61391;50.922;6.928;2023-03-09T12:16:20;10.40;99.90
34698;DHT22;61391;50.922;6.928;2023-03-09T12:22:20;10.60;99.90
34698;DHT22;61391;50.922;6.928;2023-03-09T12:25:16;10.70;99.90
34698;DHT22;61391;50.922;6.928;2023-03-09T12:27:53;10.50;99.90
34698;DHT22;61391;50.922;6.928;2023-03-09T12:30:32;10.40;99.90
34698;DHT22;61391;50.922;6.928;2023-03-09T12:33:00;10.40;99.90
34698;DHT22;61391;50.922;6.928;2023-03-09T12:40:35;9.60;99.90
34698;DHT22;61391;50.922;6.928;2023-03-09T12:43:32;9.70;99.90
34698;DHT22;61391;50.922;6.928;2023-03-09T12:46:37;9.70;99.90
34698;DHT22;61391;50.922;6.928;2023-03-09T12:49:11;9.60;99.90
34698;DHT22;61391;50.922;6.928;2023-03-09T12:51:38;9.70;99.90
34698;DHT22;61391;50.922;6.928;2023-03-09T12:54:22;9.50;99.90
34698;DHT22;61391;50.922;6.928;2023-03-09T12:56:51;8.90;99.90
34698;DHT22;61391;50.922;6.928;2023-03-09T12:59:27;8.80;99.90
34698;DHT22;61391;50.922;6.928;2023-03-09T13:01:53;8.70;99.90
34698;DHT22;61391;50.922;6.928;2023-03-09T13:04:31;9.00;99.90
34698;DHT22;61391;50.922;6.928;2023-03-09T13:07:04;9.30;99.90
34698;DHT22;61391;50.922;6.928;2023-03-09T13:09:35;9.50;99.90
34698;DHT22;61391;50.922;6.928;2023-03-09T13:12:32;9.80;99.90
34698;DHT22;61391;50.922;6.928;2023-03-09T13:18:23;8.90;99.90
34698;DHT22;61391;50.922;6.928;2023-03-09T13:20:51;8.40;99.90
34698;DHT22;61391;50.922;6.928;2023-03-09T13:23:18;8.20;99.90
34698;DHT22;61391;50.922;6.928;2023-03-09T13:30:47;8.20;99.90
34698;DHT22;61391;50.922;6.928;2023-03-09T13:33:24;8.20;99.90
34698;DHT22;61391;50.922;6.928;2023-03-09T13:36:07;8.30;99.90
34698;DHT22;61391;50.922;6.928;2023-03-09T13:38:36;8.40;99.90
34698;DHT22;61391;50.922;6.928;2023-03-09T13:44:26;8.50;99.90
34698;DHT22;61391;50.922;6.928;2023-03-09T13:46:54;8.50;99.90
34698;DHT22;61391;50.922;6.928;2023-03-09T13:53:20;8.70;99.90
34698;DHT22;61391;50.922;6.928;2023-03-09T13:59:13;9.00;99.90
34698;DHT22;61391;50.922;6.928;2023-03-09T14:01:40;9.00;99.90
34698;DHT22;61391;50.922;6.928;2023-03-09T14:08:16;9.10;99.90
34698;DHT22;61391;50.922;6.928;2023-03-09T14:10:23;9.00;99.90
34698;DHT22;61391;50.922;6.928;2023-03-09T14:12:58;9.00;99.90
34698;DHT22;61391;50.922;6.928;2023-03-09T14:15:25;8.90;99.90
34698;DHT22;61391;50.922;6.928;2023-03-09T14:17:53;9.00;99.90
34698;DHT22;61391;50.922;6.928;2023-03-09T14:20:24;9.10;99.90
34698;DHT22;61391;50.922;6.928;2023-03-09T14:22:52;9.30;99.90
34698;DHT22;61391;50.922;6.928;2023-03-09T14:27:55;9.20;99.90
34698;DHT22;61391;50.922;6.928;2023-03-09T14:36:19;9.30;99.90
34698;DHT22;61391;50.922;6.928;2023-03-09T14:38:59;9.30;99.90
34698;DHT22;61391;50.922;6.928;2023-03-09T14:47:29;9.80;99.90
34698;DHT22;61391;50.922;6.928;2023-03-09T14:49:54;9.90;99.90
34698;DHT22;61391;50.922;6.928;2023-03-09T14:52:22;9.90;99.90
34698;DHT22;61391;50.922;6.928;2023-03-09T14:58:53;10.00;99.90
34698;DHT22;61391;50.922;6.928;2023-03-09T15:01:43;10.00;99.90
34698;DHT22;61391;50.922;6.928;2023-03-09T15:04:15;10.00;99.90
34698;DHT22;61391;50.922;6.928;2023-03-09T15:06:49;10.30;99.90
34698;DHT22;61391;50.922;6.928;2023-03-09T15:09:18;10.40;99.90
34698;DHT22;61391;50.922;6.928;2023-03-09T15:11:45;10.60;99.90
34698;DHT22;61391;50.922;6.928;2023-03-09T15:14:20;10.40;99.90
34698;DHT22;61391;50.922;6.928;2023-03-09T15:23:13;10.60;99.90
34698;DHT22;61391;50.922;6.928;2023-03-09T15:25:42;10.70;99.90
34698;DHT22;61391;50.922;6.928;2023-03-09T15:28:09;10.80;99.90
34698;DHT22;61391;50.922;6.928;2023-03-09T15:30:34;10.90;99.90
34698;DHT22;61391;50.922;6.928;2023-03-09T15:33:01;11.00;99.90
34698;DHT22;61391;50.922;6.928;2023-03-09T15:35:28;11.10;99.90
34698;DHT22;61391;50.922;6.928;2023-03-09T15:37:55;11.10;99.90
34698;DHT22;61391;50.922;6.928;2023-03-09T15:40:20;11.20;99.90
34698;DHT22;61391;50.922;6.928;2023-03-09T15:42:48;11.50;99.90
34698;DHT22;61391;50.922;6.928;2023-03-09T15:48:35;11.90;99.90
34698;DHT22;61391;50.922;6.928;2023-03-09T15:51:02;11.80;99.90
34698;DHT22;61391;50.922;6.928;2023-03-09T15:53:29;11.60;99.90
34698;DHT22;61391;50.922;6.928;2023-03-09T15:58:25;11.70;99.90
34698;DHT22;61391;50.922;6.928;2023-03-09T16:00:55;11.70;99.90
34698;DHT22;61391;50.922;6.928;2023-03-09T16:03:21;11.90;99.90
34698;DHT22;61391;50.922;6.928;2023-03-09T16:05:48;12.10;99.90
34698;DHT22;61391;50.922;6.928;2023-03-09T16:08:14;12.10;99.90
34698;DHT22;61391;50.922;6.928;2023-03-09T16:10:39;12.10;99.90
34698;DHT22;61391;50.922;6.928;2023-03-09T16:16:38;12.10;99.90
34698;DHT22;61391;50.922;6.928;2023-03-09T16:19:22;12.00;99.90
34698;DHT22;61391;50.922;6.928;2023-03-09T16:22:15;12.10;99.90
34698;DHT22;61391;50.922;6.928;2023-03-09T16:28:03;12.20;99.90
34698;DHT22;61391;50.922;6.928;2023-03-09T16:30:31;12.60;99.90
34698;DHT22;61391;50.922;6.928;2023-03-09T16:39:52;12.40;99.90
34698;DHT22;61391;50.922;6.928;2023-03-09T16:42:21;12.40;99.90
34698;DHT22;61391;50.922;6.928;2023-03-09T16:44:58;12.40;99.90
34698;DHT22;61391;50.922;6.928;2023-03-09T16:47:24;12.30;99.90
34698;DHT22;61391;50.922;6.928;2023-03-09T16:50:01;12.20;99.90
34698;DHT22;61391;50.922;6.928;2023-03-09T16:52:28;12.20;99.90
34698;DHT22;61391;50.922;6.928;2023-03-09T16:55:05;12.40;99.90
34698;DHT22;61391;50.922;6.928;2023-03-09T17:00:54;12.40;99.90
34698;DHT22;61391;50.922;6.928;2023-03-09T17:03:26;12.30;99.90
34698;DHT22;61391;50.922;6.928;2023-03-09T17:05:52;12.30;99.90
34698;DHT22;61391;50.922;6.928;2023-03-09T17:08:21;12.20;99.90
34698;DHT22;61391;50.922;6.928;2023-03-09T17:17:34;12.00;99.90
34698;DHT22;61391;50.922;6.928;2023-03-09T17:20:01;12.00;99.90
34698;DHT22;61391;50.922;6.928;2023-03-09T17:25:49;11.90;99.90
34698;DHT22;61391;50.922;6.928;2023-03-09T17:28:22;11.70;99.90
34698;DHT22;61391;50.922;6.928;2023-03-09T17:34:12;11.70;99.90
34698;DHT22;61391;50.922;6.928;2023-03-09T17:40:00;11.70;99.90
34698;DHT22;61391;50.922;6.928;2023-03-09T17:42:39;11.80;99.90
34698;DHT22;61391;50.922;6.928;2023-03-09T17:45:09;11.70;99.90
34698;DHT22;61391;50.922;6.928;2023-03-09T17:47:35;11.70;99.90
34698;DHT22;61391;50.922;6.928;2023-03-09T17:50:03;11.80;99.90
34698;DHT22;61391;50.922;6.928;2023-03-09T17:52:31;11.80;99.90
34698;DHT22;61391;50.922;6.928;2023-03-09T17:54:57;11.70;99.90
34698;DHT22;61391;50.922;6.928;2023-03-09T17:57:22;11.80;99.90
34698;DHT22;61391;50.922;6.928;2023-03-09T17:59:48;11.80;99.90
34698;DHT22;61391;50.922;6.928;2023-03-09T18:02:17;11.80;99.90
34698;DHT22;61391;50.922;6.928;2023-03-09T18:05:17;11.90;99.90
34698;DHT22;61391;50.922;6.928;2023-03-09T18:14:28;11.70;99.90
34698;DHT22;61391;50.922;6.928;2023-03-09T18:20:16;11.70;99.90
34698;DHT22;61391;50.922;6.928;2023-03-09T18:22:41;11.70;99.90
34698;DHT22;61391;50.922;6.928;2023-03-09T18:25:07;11.70;99.90
34698;DHT22;61391;50.922;6.928;2023-03-09T18:30:55;11.70;99.90
34698;DHT22;61391;50.922;6.928;2023-03-09T18:33:21;11.80;99.90
34698;DHT22;61391;50.922;6.928;2023-03-09T18:35:58;11.90;99.90
34698;DHT22;61391;50.922;6.928;2023-03-09T18:38:57;11.90;99.90
34698;DHT22;61391;50.922;6.928;2023-03-09T18:44:45;11.80;99.90
34698;DHT22;61391;50.922;6.928;2023-03-09T18:47:11;11.80;99.90
34698;DHT22;61391;50.922;6.928;2023-03-09T18:49:37;11.80;99.90
34698;DHT22;61391;50.922;6.928;2023-03-09T18:52:03;12.00;99.90
34698;DHT22;61391;50.922;6.928;2023-03-09T18:54:29;12.00;99.90
34698;DHT22;61391;50.922;6.928;2023-03-09T19:00:17;11.90;99.90
34698;DHT22;61391;50.922;6.928;2023-03-09T19:02:43;11.80;99.90
34698;DHT22;61391;50.922;6.928;2023-03-09T19:05:11;11.80;99.90
34698;DHT22;61391;50.922;6.928;2023-03-09T19:07:37;11.90;99.90
34698;DHT22;61391;50.922;6.928;2023-03-09T19:13:58;11.60;99.90
34698;DHT22;61391;50.922;6.928;2023-03-09T19:19:48;11.70;99.90
34698;DHT22;61391;50.922;6.928;2023-03-09T19:25:37;11.50;99.90
34698;DHT22;61391;50.922;6.928;2023-03-09T19:31:51;11.50;99.90
34698;DHT22;61391;50.922;6.928;2023-03-09T19:41:12;11.20;99.90
34698;DHT22;61391;50.922;6.928;2023-03-09T19:46:59;10.90;99.90
34698;DHT22;61391;50.922;6.928;2023-03-09T19:59:47;10.60;99.90
34698;DHT22;61391;50.922;6.928;2023-03-09T20:15:50;10.60;99.90
34698;DHT22;61391;50.922;6.928;2023-03-09T20:18:26;10.50;99.90
34698;DHT22;61391;50.922;6.928;2023-03-09T20:24:27;10.40;99.90
34698;DHT22;61391;50.922;6.928;2023-03-09T20:30:18;10.60;99.90
34698;DHT22;61391;50.922;6.928;2023-03-09T20:32:44;10.70;99.90
34698;DHT22;61391;50.922;6.928;2023-03-09T20:38:32;10.80;99.90
34698;DHT22;61391;50.922;6.928;2023-03-09T20:40:59;10.70;99.90
34698;DHT22;61391;50.922;6.928;2023-03-09T20:46:47;10.60;99.90
34698;DHT22;61391;50.922;6.928;2023-03-09T20:52:44;10.60;99.90
34698;DHT22;61391;50.922;6.928;2023-03-09T21:05:17;10.70;99.90
34698;DHT22;61391;50.922;6.928;2023-03-09T21:07:59;10.60;99.90
34698;DHT22;61391;50.922;6.928;2023-03-09T21:13:50;10.60;99.90